Accueil
METAR-TAF:

METAR-TAF

Aéroports :

Mersing, Malaisie

latitude: 02-23-00N, longitude: 103-51-34E, altitude: 3 m

Observation

Le bulletin a été fait il y a 1 heure et 12 minutes, à 01:00 UTC
Vent 7 kt de sud-ouest, variant entre sud-est et ouest/sud-ouest
Température 24°C
Humidité 94%
Pression 1010 hPa
Visibilité: 9000 m
Quelques nuages à une hauteur de 300 ft
Nuages épars à une hauteur de 2500 ft
pluie faible,

METAR: WMAU 220100Z 23007KT 130V240 9000 -RA FEW003 SCT025 24/23 Q1010

Heure: 10:12 (02:12 UTC)


TAF: absent

Observations et prévisions météorologiques de plus de 4000 aéroports (messages METAR et TAF).

Les stations disponibles sont représentées par des disques jaunes et rouges sur la carte.

Passer la souris dessus pour voir le nom de la station.

Cliquer dessus pour voir les observations et prévisions météorologiques.

Pour changer de carte: cliquez sur les boutons verts avec une croix noire pour zoomer, sur le bouton vert avec un tiret pour effectuer un zoom arrière, ou sur les flèches vertes pour les cartes adjacentes.


METAR-TAF: